Tiempo atmosférico en la estación meteorológica de San Sebastián Aeropuerto, Gipuzkoa (4 m.)



Fecha
DESCASC
Temp. máxima en grados centígrados (hora)
DESCASC
Temp. mínima en grados centígrados (hora)
DESCASC
Temp. media en grados centígrados
DESCASC
Racha de viento máxima en m/sg (hora)
DESCASC
Velocidad máxima media en intervalos de 10 minutos(hora)
DESCASC
Precipitaciones diarias en mm
DESCASC
Precipitaciones de 00:00 a 06:00 en mm
DESCASC
Precipitaciones de 06:00 a 12:00 en mm
DESCASC
Precipitaciones de 12:00 a 18:00 en mm
DESCASC
Precipitaciones de 18:00 a 24:00 en mm
DESCASC
10-07-2020 25.3 (15:10) 20.2 (05:10) 22.8 7.22 (15:30) 4.17 (15:30) 0.3 0 0.2 0 0.1
09-07-2020 26.3 (15:00) 19.5 (07:10) 22.9 8.33 (15:40) 5.28 (13:40) 0 0 0 0 0
08-07-2020 26.1 (15:50) 16 (07:10) 21.1 8.33 (23:59) 5.83 (23:59) 0 0 0 0 0
07-07-2020 24.5 (15:30) 16.4 (06:10) 20.4 5.83 (16:40) 4.17 (19:20) 0 0 0 0 0
06-07-2020 21 (00:00) 18.2 (00:00) 19.6 8.33 (11:10) 5.28 (11:50) 9.8 2.4 7.4 0 0
05-07-2020 25.2 (16:20) 15.4 (00:00) 20.3 6.11 (13:30) 4.72 (15:00) 0 0 0 0 0
04-07-2020 23.5 (17:50) 14.2 (00:00) 18.8 5.83 (16:20) 3.89 (15:00) 0 0 0 0 0
03-07-2020 23.2 (17:00) 15.9 (07:00) 19.6 7.78 (11:00) 4.72 (11:00) -- 5 -- 0 0
02-07-2020 21.4 (00:00) 17.8 (00:00) 19.6 6.67 (00:50) 3.89 (00:20) 2.6 1.6 0.4 0.6 0
01-07-2020 24.9 (17:30) 19.4 (00:00) 22.1 6.11 (23:00) 3.89 (12:50) 0 0 0 0 0
30-06-2020 24.8 (15:30) 15.3 (00:00) 20 6.67 (13:20) 4.17 (13:10) 0 0 0 0 0
29-06-2020 22.1 (17:00) 17.5 (00:00) 19.8 7.22 (03:30) 4.72 (03:30) 1.5 1.4 0.1 0 0
28-06-2020 25.1 (19:50) 18.7 (00:00) 21.9 7.78 (20:10) 4.72 (20:20) 0.6 0.6 0 0 0
27-06-2020 26.7 (15:40) 15.9 (00:00) 21.3 5 (01:00) 4.17 (01:00) 0 0 0 0 0
26-06-2020 -- (--) -- (--) -- -- (--) -- (--) -- -- -- 0 1.6
25-06-2020 24.5 (13:10) 19.4 (00:00) 21.9 10.28 (09:10) 6.39 (16:00) 3.1 0 0 0.2 2.9
24-06-2020 28.6 (14:00) 19.5 (00:00) 24.1 10.28 (19:50) 5.83 (22:20) 0 0 0 0 0
23-06-2020 28.7 (15:30) 15.6 (00:00) 22.2 6.11 (16:00) 4.44 (16:40) 0 0 0 0 0
22-06-2020 23.2 (17:00) 17.5 (00:00) 20.4 6.67 (15:50) 5 (16:30) 0 0 0 0 0
21-06-2020 25.3 (15:50) 14.8 (00:00) 20 7.22 (17:00) 4.17 (17:00) 0 0 0 0 0
20-06-2020 22.1 (16:20) 16.6 (00:00) 19.4 5.83 (13:30) 3.89 (13:50) 0 0 0 0 0
19-06-2020 21.9 (18:00) 13.7 (00:00) 17.8 6.67 (13:50) 3.89 (14:00) 0 0 0 0 0
18-06-2020 21.4 (17:00) 14 (00:00) 17.7 7.22 (12:50) 4.72 (13:50) 3.9 3.6 0.3 0 0
17-06-2020 20.6 (16:10) 14.5 (00:00) 17.6 10.28 (11:50) 6.11 (11:20) 0.1 0.1 0 0 0
16-06-2020 21.9 (13:30) 15.7 (00:00) 18.8 9.17 (19:20) 5.83 (17:30) 1.4 0 0 0.4 1
15-06-2020 22 (18:20) 14.9 (00:00) 18.4 4.72 (16:00) 3.89 (16:10) 0 0 0 0 0

Gráficas

Temp. máximas Temp. mínimas Temp. medias Precipitaciones Rachas de viento máximas Velocidades máximas media en intervalos de 10 minutos

Datos horarios

Fecha y hora oficial Temperatura (ºC) Velocidad del viento (km/h) Dirección del viento Racha (km/h) Dirección de racha Precipitación (mm) Presión (hPa) Tendencia (hPa) Humedad (%)
2020-07-14 23:00:00 20.1 7 Oeste 17 Oeste 0 1020.7 0.9 70
2020-07-14 22:00:00 20.7 9 Oeste 17 Oeste 0 1020 0.4 69
2020-07-14 21:00:00 21.2 12 Oeste 21 Oeste 0 1019.9 0.2 67
2020-07-14 20:00:00 21.7 12 Oeste 22 Oeste 0 1019.8 0 65
2020-07-14 19:00:00 22.9 13 Oeste 28 Noroeste 0 1019.6 -0.3 56
2020-07-14 18:00:00 23.5 15 Noroeste 28 Noroeste 0 1019.7 -0.3 56
2020-07-14 17:00:00 23.6 13 Oeste 26 Oeste 0 1019.8 -0.6 54
2020-07-14 16:00:00 23.5 14 Noroeste 30 Oeste 0 1019.9 -0.6 58
2020-07-14 15:00:00 24 14 Noroeste 26 Oeste 0 1020 -0.6 54
2020-07-14 14:00:00 23.8 15 Noroeste 30 Noroeste 0 1020.4 -0.3 56
2020-07-14 13:00:00 23.2 11 Oeste 24 Noroeste 0 1020.5 -0.2 57
2020-07-14 12:00:00 22.5 16 Noroeste 24 Oeste 0 1020.6 0 57
2020-07-14 11:00:00 22.3 14 Oeste 26 Oeste 0 1020.7 0 64
2020-07-14 10:00:00 22 13 Sudoeste 21 Sudoeste 0 1020.7 0 68
2020-07-14 09:00:00 20.7 12 Sudoeste 17 Oeste 0 1020.6 -0.4 74
2020-07-14 08:00:00 18.3 12 Sudoeste 17 Sudoeste 0 1020.7 -- 83
2020-07-14 07:00:00 18.1 13 Sudoeste 17 Sudoeste 0 1020.7 -- 87
2020-07-14 06:00:00 18.2 8 Sur 11 Sur 0 1021 -- 90
2020-07-14 05:00:00 18.2 10 Sur 13 Sur 0 1021.1 -- 89
2020-07-14 04:00:00 18.5 10 Sur 13 Sur 0 1021.5 -- 88
2020-07-14 03:00:00 19 10 Sur 13 Sur 0 1021.9 -- 89
2020-07-14 02:00:00 19.2 9 Sur 13 Sudoeste 0 1022 -- 88
2020-07-14 01:00:00 19.5 11 Sudoeste 13 Sudoeste 0 1022.5 -- 87
2020-07-14 00:00:00 20.1 6 Oeste 11 Oeste 0 1022.7 -- 84
2020-07-13 23:00:00 20.7 5 Oeste 9 Sudoeste 0 1022.7 -- 81
2020-07-13 22:00:00 21.6 6 Sudoeste 15 Oeste 0 1022.4 0.3 78
2020-07-13 21:00:00 22.6 9 Oeste 21 Oeste 0 1022.4 0.1 74
2020-07-13 20:00:00 24.4 12 Noroeste 22 Oeste 0 1022.3 -0.1 67
2020-07-13 19:00:00 25.1 13 Oeste 30 Oeste 0 1022.1 -0.7 64
2020-07-13 18:00:00 25.5 17 Oeste 30 Noroeste 0 1022.3 -0.7 63
2020-07-13 17:00:00 26.2 18 Oeste 30 Oeste 0 1022.4 -0.8 56
2020-07-13 16:00:00 26.4 18 Oeste 30 Oeste 0 1022.8 -0.6 52
2020-07-13 15:00:00 25.8 17 Oeste 28 Oeste 0 1023 -0.4 63
2020-07-13 14:00:00 25.7 17 Oeste 32 Oeste 0 1023.2 0 66
2020-07-13 13:00:00 25.4 19 Oeste 32 Noroeste 0 1023.4 0.2 67
2020-07-13 12:00:00 24 15 Oeste 28 Oeste 0 1023.4 0.5 70
2020-07-13 11:00:00 23.2 15 Sudoeste 24 Sudoeste 0 1023.2 0.7 72
2020-07-13 10:00:00 22 15 Sudoeste 26 Sudoeste 0 1023.2 1.2 74
2020-07-13 09:00:00 21.4 18 Sudoeste 28 Sudoeste 0 1022.9 1.4 75
2020-07-13 08:00:00 19.9 17 Sudoeste 24 Sudoeste 0 1022.5 1.2 79
2020-07-13 07:00:00 19.5 18 Sudoeste 24 Sudoeste 0 1022 -- 80
2020-07-13 06:00:00 19.7 17 Sudoeste 24 Sudoeste 0 1021.5 0.3 80
2020-07-13 05:00:00 19.6 16 Sudoeste 22 Sudoeste 0 1021.3 -0.1 81
2020-07-13 04:00:00 19.8 14 Sudoeste 26 Sudoeste 0 1021.4 -0.4 79
2020-07-13 03:00:00 20.4 17 Sudoeste 24 Sudoeste 0 1021.2 -0.5 76
2020-07-13 02:00:00 20.9 12 Sudoeste 17 Sudoeste 0 1021.4 0.1 77
2020-07-13 01:00:00 21.5 11 Sudoeste 21 Sudoeste 0 1021.8 1 76
2020-07-13 00:00:00 21.6 14 Sudoeste 18 Sudoeste 0 1021.7 1.5 77
2020-07-12 23:00:00 21.8 15 Sudoeste 21 Sudoeste 0 1021.3 1.8 76
2020-07-12 22:00:00 22.3 11 Sudoeste 18 Oeste 0 1020.8 1.8 74
2020-07-12 21:00:00 23.1 10 Oeste 22 Noroeste 0 1020.2 1.5 70
2020-07-12 20:00:00 24.9 12 Noroeste 21 Norte 0 1019.5 0.9 65
2020-07-12 19:00:00 25.4 13 Norte 21 Norte 0 1019 0.8 65
2020-07-12 18:00:00 25.6 10 Norte 21 Norte 0 1018.7 2 64
2020-07-12 17:00:00 24.7 12 Norte 28 Norte 0 1018.6 1.3 70
2020-07-12 16:00:00 25.4 18 Norte 28 Norte 0 1018.2 -0.7 70
2020-07-12 15:00:00 26.8 13 Norte 22 Nordeste 0 1016.7 -- 69
2020-07-12 14:00:00 25 15 Sudeste 32 Sudeste 0 1017.3 -3.5 67
2020-07-12 13:00:00 21.3 13 Sudeste 24 Sudeste 0 1018.9 -- 80
2020-07-12 12:00:00 20 6 Sur 21 Este 0.1 1019.8 -- 85
2020-07-12 11:00:00 19.7 10 Sudeste 21 Este 0.3 1020.8 -- 89
2020-07-12 10:00:00 19.5 13 Este 21 Sudeste 6.6 1020.7 1.3 93
2020-07-12 09:00:00 20 15 Sudoeste 30 Oeste 0.9 1022.3 -- 86
2020-07-12 08:00:00 19.6 15 Sudoeste 22 Oeste 0 1020.7 -- 82
2020-07-12 07:00:00 18.5 13 Sudoeste 21 Sudoeste 0 1019.4 -- 85
2020-07-12 06:00:00 18.2 5 Sur 9 Sur 0 1018.3 -- 85
2020-07-12 05:00:00 18.1 6 Sur 9 Sur 0 1018 -- 86
2020-07-12 04:00:00 18.6 7 Sur 11 Sur 0 1018 -- 83
2020-07-12 03:00:00 19.1 6 Sur 13 Sur 0 1018.6 -- 81
2020-07-12 02:00:00 19.4 9 Sur 13 Sur 0 1019.1 -- 80
2020-07-12 01:00:00 19.9 8 Sur 9 Sur 0 1019.6 -- 81
2020-07-12 00:00:00 20.2 8 Sudoeste 11 Sudoeste 0 1019.7 -- 79
2020-07-11 23:00:00 20.8 6 Sudoeste 9 Sudoeste 0 1019.8 -- 77
2020-07-11 22:00:00 22.2 5 Oeste 11 Nordeste 0 1019.5 -- 71
2020-07-11 21:00:00 23.3 8 Nordeste 15 Norte 0 1019.6 -- 64
2020-07-11 20:00:00 23.9 11 Nordeste 21 Norte 0 1019.7 -- 63
2020-07-11 19:00:00 24.1 15 Nordeste 26 Nordeste 0 1019.8 -0.9 64
2020-07-11 18:00:00 24.2 15 Norte 24 Nordeste 0 1020.2 -- 61
2020-07-11 17:00:00 24.5 14 Norte 21 Norte 0 1020.4 -- 64
2020-07-11 16:00:00 24.1 13 Norte 21 Nordeste 0 1020.7 -- 64
2020-07-11 15:00:00 24.1 14 Norte 22 Norte 0 1021.1 -- 60
2020-07-11 14:00:00 24.1 12 Norte 22 Norte 0 1021.5 -- 60
2020-07-11 13:00:00 23.8 12 Norte 17 Nordeste 0 1021.6 -- 59
2020-07-11 12:00:00 23.2 12 Nordeste 15 Nordeste 0 1021.7 -- 63
2020-07-11 11:00:00 22.3 9 Nordeste 13 Nordeste 0 1021.6 -- 68
2020-07-11 10:00:00 22 6 Sudeste 9 Sudeste 0 1021.7 -- 69
2020-07-11 09:00:00 20.8 4 Sur 8 Sur 0 1021.5 -- 76
2020-07-11 08:00:00 19.9 6 Sudoeste 9 Sudoeste 0 1021.4 -- 82
2020-07-11 07:00:00 19.9 7 Sur 13 Sudeste 0 1021.3 -- 81
2020-07-11 06:00:00 19.5 5 Sudoeste 9 Sudoeste 0 1020.9 -- 82
2020-07-11 05:00:00 19.5 8 Sur 11 Sur 0 1020.9 -- 85
2020-07-11 04:00:00 19.9 4 Sudoeste 9 Sur 0 1021 -- 81
2020-07-11 03:00:00 20.2 2 Este 8 Sudoeste 0 1021.1 -- 76
2020-07-11 02:00:00 20.2 4 Oeste 9 Noroeste 0 1021.4 0.3 76
2020-07-11 01:00:00 20.3 4 Sur 13 Noroeste 0 1021.4 -- 76
2020-07-11 00:00:00 20.4 6 Noroeste 13 Noroeste 0 1021.3 -- 79
2020-07-10 23:00:00 20.4 4 Oeste 8 Oeste 0 1021.1 -- 81
2020-07-10 22:00:00 20.7 5 Noroeste 13 Noroeste 0 1020.6 -- 82
2020-07-10 21:00:00 20.8 4 Nordeste 13 Norte 0.1 1020.4 -- 83
2020-07-10 20:00:00 21.5 5 Noroeste 13 Noroeste 0 1020.2 -- 78
2020-07-10 19:00:00 21.5 9 Nordeste 17 Norte 0 1019.9 -- 75
2020-07-10 18:00:00 22.3 9 Noroeste 18 Norte 0 1019.9 -- 70
2020-07-10 17:00:00 23.4 11 Noroeste 21 Oeste 0 1019.8 -- 65
2020-07-10 16:00:00 24.5 12 Noroeste 26 Oeste 0 1019.8 -- 59
2020-07-10 15:00:00 24.8 11 Noroeste 24 Noroeste 0 1019.6 -- 52
2020-07-10 14:00:00 24.6 7 Oeste 18 Noroeste 0 1019.7 0.1 54
2020-07-10 13:00:00 23.5 10 Noroeste 18 Noroeste 0 1019.9 -- 64
2020-07-10 12:00:00 24.7 14 Noroeste 22 Oeste 0 1019.8 -- 61
2020-07-10 11:00:00 22.4 10 Nordeste 17 Nordeste 0 1019.6 -- 75
2020-07-10 10:00:00 22.1 10 Norte 15 Norte 0 1019.7 -- 77
2020-07-10 09:00:00 21 7 Noroeste 13 Noroeste 0 1019.3 -- 84
2020-07-10 08:00:00 20.8 5 Noroeste 8 Norte 0.2 1018.9 -- 87
2020-07-10 07:00:00 20.3 5 Sur 9 Sur 0 1018.7 -- 88
2020-07-10 06:00:00 20.3 9 Sur 11 Sur 0 1018.7 -- 88
2020-07-10 05:00:00 20.5 6 Sur 8 Sur 0 1018.8 -- 87
2020-07-10 04:00:00 20.7 3 Oeste 13 Norte 0 1018.8 -- 84
2020-07-10 03:00:00 20.8 5 Oeste 15 Noroeste 0 1019.3 -- 83
2020-07-10 02:00:00 21.4 5 Oeste 15 Oeste 0 1019.4 -- 80
2020-07-10 01:00:00 21.5 8 Oeste 17 Norte 0 1019.7 -- 81
2020-07-10 00:00:00 21.6 8 Noroeste 22 Norte 0 1019.3 -- 82
2020-07-09 23:00:00 22.2 9 Noroeste 17 Oeste 0 1018.8 0.8 84
2020-07-09 22:00:00 22.5 9 Oeste 21 Noroeste 0 1018.2 -- 80
2020-07-09 21:00:00 22.9 15 Oeste 24 Oeste 0 1017.9 -- 80
2020-07-09 20:00:00 23.7 13 Oeste 24 Noroeste 0 1018 -- 77
2020-07-09 19:00:00 25.7 17 Oeste 22 Noroeste 0 1018.1 -- 68
2020-07-09 18:00:00 25.8 16 Oeste 28 Oeste 0 1017.8 -- 68
2020-07-09 17:00:00 26.1 18 Noroeste 28 Noroeste 0 1018 -- 68
2020-07-09 16:00:00 25.9 18 Oeste 30 Oeste 0 1018.2 -- 68
2020-07-09 15:00:00 26 14 Noroeste 26 Oeste 0 1018.3 -- 67
2020-07-09 14:00:00 25.4 19 Oeste 28 Noroeste 0 1018.6 -- 69
2020-07-09 13:00:00 25 17 Noroeste 26 Noroeste 0 1018.4 -- 71
2020-07-09 12:00:00 25.3 13 Oeste 24 Oeste 0 1018.5 -- 66
2020-07-09 11:00:00 24.2 15 Oeste 22 Oeste 0 1018.6 -- 71
2020-07-09 10:00:00 24 13 Sudoeste 18 Sudoeste 0 1018 -- 72
2020-07-09 09:00:00 22.3 14 Sudoeste 18 Sudoeste 0 1017.7 -- 76
2020-07-09 08:00:00 20.2 9 Sudoeste 17 Sudoeste 0 1017.4 -- 83
2020-07-09 07:00:00 19.7 7 Sur 11 Sur 0 1016.9 -- 86
2020-07-09 06:00:00 19.9 3 Sur 15 Sudoeste 0 1016.2 -- 87
2020-07-09 05:00:00 20.3 11 Sudoeste 17 Sudoeste 0 1016.4 -- 84
2020-07-09 04:00:00 20.9 12 Sudoeste 18 Sudoeste 0 1016.7 -- 81
2020-07-09 03:00:00 21 9 Sudoeste 17 Sudoeste 0 1017.3 -- 80
2020-07-09 02:00:00 21.6 6 Oeste 18 Sudoeste 0 1017.2 -- 79
2020-07-09 01:00:00 21.9 10 Sudoeste 24 Sudoeste 0 1017.6 -- 79
2020-07-09 00:00:00 22.1 21 Sudoeste 30 Sudoeste 0 1017.7 -- 78
2020-07-08 23:00:00 22.7 6 Oeste 13 Sudoeste 0 1016.3 -- 76
2020-07-08 22:00:00 23.4 9 Sudoeste 13 Sudoeste 0 1016 -- 70
2020-07-08 21:00:00 24.5 7 Noroeste 11 Noroeste 0 1015.3 -- 64
2020-07-08 20:00:00 24.9 5 Norte 11 Norte 0 1015.3 -- 62
2020-07-08 19:00:00 25.2 10 Nordeste 15 Nordeste 0 1015.3 -- 61
2020-07-08 18:00:00 25.3 10 Norte 17 Nordeste 0 1015.6 -- 61
2020-07-08 17:00:00 25.6 15 Nordeste 22 Nordeste 0 1015.8 -- 61
2020-07-08 16:00:00 25.8 10 Norte 21 Norte 0 1016.3 -- 59
2020-07-08 15:00:00 25.3 12 Norte 18 Norte 0 1016.1 -- 68
2020-07-08 14:00:00 24 14 Nordeste 21 Nordeste 0 1016.8 -- 71
2020-07-08 13:00:00 23.8 12 Norte 15 Norte 0 1017.2 -- 69
2020-07-08 12:00:00 23 12 Norte 15 Norte 0 1017.4 -- 70
2020-07-08 11:00:00 22.4 10 Nordeste 13 Nordeste 0 1017.5 -- 69
2020-07-08 10:00:00 20.2 4 Sur 8 Sur 0 1017.5 -- 74
2020-07-08 09:00:00 18.4 5 Sudeste 9 Sudeste 0 1017.5 -- 80
2020-07-08 08:00:00 16.7 6 Sudeste 11 Sur 0 1017.2 -- 87
2020-07-08 07:00:00 16.1 8 Sudeste 9 Sudeste 0 1017.2 -- 89
2020-07-08 06:00:00 16.2 8 Sur 9 Sur 0 1017.2 -- 89
2020-07-08 05:00:00 16.5 7 Sur 11 Sur 0 1017.5 -- 89
2020-07-08 04:00:00 16.7 8 Sudeste 13 Sur 0 1017.7 -- 89
2020-07-08 03:00:00 17.5 10 Sur 13 Sur 0 1018 -- 87
2020-07-08 02:00:00 17.9 10 Sur 13 Sur 0 1018.3 -- 86
2020-07-08 01:00:00 18.5 11 Sur 13 Sur 0 1018.6 -- 86
2020-07-08 00:00:00 18.9 8 Sur 11 Sur 0 1018.8 -- 83
2020-07-07 23:00:00 20.2 8 Sur 15 Nordeste 0 1018.9 -- 78
2020-07-07 22:00:00 21.5 10 Nordeste 17 Nordeste 0 1018.4 -- 71
2020-07-07 21:00:00 22.1 12 Nordeste 18 Nordeste 0 1018.3 -- 65
2020-07-07 20:00:00 22.8 14 Nordeste 21 Nordeste 0 1018.3 -0.9 61
2020-07-07 19:00:00 23.4 13 Nordeste 18 Nordeste 0 1018.5 -0.8 58
2020-07-07 18:00:00 23.2 14 Nordeste 21 Nordeste 0 1018.9 -0.9 65
2020-07-07 17:00:00 23.4 12 Norte 21 Nordeste 0 1019.2 -1 63
2020-07-07 16:00:00 23.7 11 Norte 17 Nordeste 0 1019.3 -1.2 61
2020-07-07 15:00:00 22.4 9 Norte 17 Norte 0 1019.8 -0.9 66
2020-07-07 14:00:00 22.9 12 Norte 17 Norte 0 1020.2 -0.5 59
2020-07-07 13:00:00 23.3 10 Norte 18 Noroeste 0 1020.5 -0.4 58
2020-07-07 12:00:00 22.8 12 Norte 18 Norte 0 1020.7 -0.3 56
2020-07-07 11:00:00 22.7 7 Oeste 13 Oeste 0 1020.7 -0.2 61
2020-07-07 10:00:00 20.7 5 Sudoeste 13 Sudoeste 0 1020.9 -0.3 67
2020-07-07 09:00:00 18.9 8 Sudoeste 13 Sudoeste 0 1021 -0.5 73
2020-07-07 08:00:00 17.3 9 Sur 11 Sur 0 1020.9 -0.8 80
2020-07-07 07:00:00 16.5 8 Sur 11 Sur 0 1021.2 -- 84
2020-07-07 06:00:00 16.6 7 Sur 9 Sudoeste 0 1021.5 -- 83
2020-07-07 05:00:00 16.8 9 Sudoeste 9 Sur 0 1021.7 -- 84
2020-07-07 04:00:00 16.9 7 Sur 9 Sur 0 1022.1 -- 83
2020-07-07 03:00:00 17.1 6 Sur 11 Sur 0 1022.8 -- 84
2020-07-07 02:00:00 17.7 6 Sur 13 Sur 0 1023.2 -- 79
2020-07-07 01:00:00 18.1 6 Norte 11 Noroeste 0 1023.5 -- 77
2020-07-07 00:00:00 18.2 3 Sudeste 9 Nordeste 0 1024 -- 72
2020-07-06 23:00:00 18.4 5 Oeste 13 Noroeste 0 1024.1 -- 69
2020-07-06 22:00:00 18.7 9 Norte 17 Norte 0 1023.8 -- 67
2020-07-06 21:00:00 19.5 7 Noroeste 17 Noroeste 0 1023.8 -- 65
2020-07-06 20:00:00 20.2 10 Noroeste 17 Noroeste 0 1023.9 -- 66
2020-07-06 19:00:00 20.2 11 Norte 21 Norte 0 1024.1 -- 68
2020-07-06 18:00:00 20.6 13 Norte 24 Norte 0 1024.3 -- 69
2020-07-06 17:00:00 20.7 10 Norte 17 Norte 0 1024.3 -- 71
2020-07-06 16:00:00 20.5 10 Norte 18 Norte 0 1024.4 -- 72
2020-07-06 15:00:00 20.5 12 Norte 21 Norte 0 1024.4 -- 73
2020-07-06 14:00:00 20.3 13 Norte 22 Nordeste 0 1024.3 -- 76
2020-07-06 13:00:00 20.1 15 Norte 26 Norte 0 1024 -- 81
2020-07-06 12:00:00 19.6 17 Norte 30 Norte 0.3 1023.7 -- 92
2020-07-06 11:00:00 19.7 17 Norte 26 Norte 2.1 1023.3 -- 95
2020-07-06 10:00:00 19.4 11 Norte 21 Norte 0.1 1023.2 -- 95
2020-07-06 09:00:00 19.6 8 Norte 21 Noroeste 1.1 1022.9 -- 97
2020-07-06 08:00:00 19.8 9 Norte 18 Norte 2.1 1022.6 -- 97
2020-07-06 07:00:00 19.5 11 Norte 18 Norte 1.7 1022.3 -- 97
2020-07-06 06:00:00 19.4 9 Noroeste 13 Noroeste 2.4 1022.1 -- 96
2020-07-06 05:00:00 19.6 10 Sudoeste 17 Sudoeste 0 1021.9 -- 94
2020-07-06 04:00:00 20.1 11 Sudoeste 13 Sudoeste 0 1022.1 -- 89
2020-07-06 03:00:00 20.8 6 Oeste 11 Oeste 0 1022.5 -- 86
2020-07-06 02:00:00 20.5 9 Sur 11 Sur 0 1022.9 -- 85
2020-07-06 01:00:00 20.7 4 Sur 9 Sur 0 1023.3 -- 83
2020-07-06 00:00:00 21 5 Oeste 13 Oeste 0 1023.2 -- 82
2020-07-05 23:00:00 21.2 6 Oeste 11 Sudoeste 0 1022.9 -- 81
2020-07-05 22:00:00 22 6 Oeste 13 Noroeste 0 1022 -- 76
2020-07-05 21:00:00 23.4 9 Noroeste 17 Noroeste 0 1021.8 -- 69
2020-07-05 20:00:00 24.2 10 Norte 18 Nordeste 0 1021.7 -- 58
2020-07-05 19:00:00 24.3 10 Norte 17 Nordeste 0 1021.6 -- 55
2020-07-05 18:00:00 24.7 13 Nordeste 18 Nordeste 0 1021.8 -- 49
2020-07-05 17:00:00 24.7 13 Nordeste 22 Nordeste 0 1022 -- 54
2020-07-05 16:00:00 24.8 13 Nordeste 21 Nordeste 0 1022 -- 56
2020-07-05 15:00:00 24.5 17 Nordeste 22 Nordeste 0 1022.3 -- 59
2020-07-05 14:00:00 24.6 14 Norte 22 Nordeste 0 1022.5 -- 59
2020-07-05 13:00:00 24 13 Nordeste 18 Nordeste 0 1022.6 -- 60
2020-07-05 12:00:00 24.2 13 Nordeste 17 Nordeste 0 1022.7 -- 57
2020-07-05 11:00:00 23.5 5 Este 8 Este 0 1022.7 -- 43
2020-07-05 10:00:00 21.2 6 Sur 9 Sur 0 1023.1 -- 50
2020-07-05 09:00:00 18.6 5 Sur 9 Sudeste 0 1023.1 -- 69
2020-07-05 08:00:00 17.2 8 Sudeste 11 Sudeste 0 1023 -- 73
2020-07-05 07:00:00 15.8 7 Sur 11 Sur 0 1023.1 -- 85
2020-07-05 06:00:00 16 9 Sur 11 Sur 0 1023 -- 84
2020-07-05 05:00:00 16.3 7 Sudeste 11 Sudeste 0 1022.9 -- 83
2020-07-05 04:00:00 16.7 8 Sur 9 Sur 0 1023.3 -- 85
2020-07-05 03:00:00 17.3 7 Sudeste 11 Sudeste 0 1023.7 -- 81
2020-07-05 02:00:00 17.3 9 Sur 11 Sur 0 1024.4 -- 84
2020-07-05 01:00:00 17.9 7 Sur 9 Sur 0 1024.6 -- 81
2020-07-05 00:00:00 18.8 7 Sur 9 Sur 0 1024.5 -- 76
2020-07-04 23:00:00 19.7 8 Sur 9 Sudoeste 0 1024.4 -- 75
2020-07-04 22:00:00 21.3 4 Nordeste 11 Nordeste 0 1023.9 -- 69
2020-07-04 21:00:00 22.1 9 Norte 13 Norte 0 1023.6 -- 64
2020-07-04 20:00:00 22.8 10 Nordeste 13 Nordeste 0 1023.3 -- 59
2020-07-04 19:00:00 23.1 10 Nordeste 15 Nordeste 0 1023.4 -- 60
2020-07-04 18:00:00 23 11 Nordeste 17 Nordeste 0 1023.7 -- 60
2020-07-04 17:00:00 23.1 12 Nordeste 21 Nordeste 0 1024 -- 61
2020-07-04 16:00:00 23.1 12 Norte 18 Norte 0 1024.1 -- 61
2020-07-04 15:00:00 22.7 14 Nordeste 18 Nordeste 0 1024.2 -- 61
2020-07-04 14:00:00 22.4 12 Norte 17 Norte 0 1024.8 -- 62
2020-07-04 13:00:00 22.1 11 Norte 17 Norte 0 1025.2 -- 61
2020-07-04 12:00:00 21.8 12 Nordeste 17 Norte 0 1024.8 -- 64
2020-07-04 11:00:00 21.2 9 Nordeste 13 Este 0 1024.5 -- 64
2020-07-04 10:00:00 19.3 6 Sudeste 9 Sur 0 1024.7 -- 72
2020-07-04 09:00:00 16.9 5 Sudeste 9 Sur 0 1024.3 -- 81
2020-07-04 08:00:00 14.9 7 Sur 11 Sur 0 1024.3 -- 89
2020-07-04 07:00:00 14.3 8 Sur 11 Sur 0 1024.2 -- 92
2020-07-04 06:00:00 14.2 7 Sur 13 Sur 0 1024 -- 91
2020-07-04 05:00:00 15 7 Sur 11 Sur 0 1023.9 -- 89
2020-07-04 04:00:00 15.1 8 Sur 11 Sur 0 1024 -- 89
2020-07-04 03:00:00 15.3 9 Sur 11 Sur 0 1024.7 -- 89
2020-07-04 02:00:00 15.4 8 Sur 11 Sur 0 1024.8 -- 88
2020-07-04 01:00:00 16 10 Sur 11 Sur 0 1024.9 -- 86
2020-07-04 00:00:00 17 6 Sur 9 Sur 0 1024.8 -- 82
2020-07-03 23:00:00 17.9 9 Sudoeste 11 Sur 0 1024.5 -- 80
2020-07-03 22:00:00 19.6 7 Norte 13 Norte 0 1024 -- 69
2020-07-03 21:00:00 20.7 8 Norte 15 Norte 0 1023.9 -- 63
2020-07-03 20:00:00 21.2 9 Norte 18 Norte 0 1023.8 -- 56
2020-07-03 19:00:00 22.6 11 Norte 21 Norte 0 1023.7 -- 53
2020-07-03 18:00:00 22.3 11 Noroeste 22 Norte 0 1023.8 -- 55
2020-07-03 17:00:00 23.1 13 Norte 22 Norte 0 1023.7 -- 53
2020-07-03 16:00:00 22.7 12 Norte 21 Norte 0 1023.9 -- 55
2020-07-03 15:00:00 21.1 11 Norte 18 Norte 0 1024.1 -- 60
2020-07-03 14:00:00 21.6 12 Norte 21 Norte 0 1024.3 -- 58
2020-07-03 13:00:00 21.4 11 Norte 18 Nordeste 0 1024.3 -- 57
2020-07-03 12:00:00 18.9 6 Sudoeste 18 Oeste -- 1024.2 -- 83
2020-07-03 11:00:00 19.9 17 Oeste 28 Oeste -- 1023.7 -- 67
2020-07-03 10:00:00 19.6 8 Oeste 13 Oeste 0 1023.5 -- 69
2020-07-03 09:00:00 17.2 8 Sur 11 Sur 0 1023.4 -- 92
2020-07-03 08:00:00 16.5 8 Sur 13 Sur 0 1023.2 -- 94
2020-07-03 07:00:00 16 6 Sudoeste 9 Sudoeste 0 1022.9 -- 94
2020-07-03 06:00:00 16.7 4 Sudoeste 9 Oeste 0 1022.6 -- 95
2020-07-03 05:00:00 17 9 Sudoeste 11 Sudoeste 2.1 1022.5 -- 95
2020-07-03 04:00:00 17 10 Nordeste 22 Nordeste 2.9 1022.8 -- 94
2020-07-03 03:00:00 17.3 12 Sudoeste 17 Sudoeste 0 1022.7 -- 90
2020-07-03 02:00:00 17.5 8 Sudoeste 13 Sudoeste 0 1022.7 -- 89
2020-07-03 01:00:00 17.8 10 Sudoeste 13 Sudoeste 0 1022.7 -- 87
2020-07-03 00:00:00 18 7 Sudoeste 11 Noroeste 0 1022.6 -- 87
2020-07-02 23:00:00 18.5 3 Oeste 11 Noroeste 0 1022.2 -- 85
2020-07-02 22:00:00 19 7 Noroeste 13 Norte 0 1021.6 -- 73
2020-07-02 21:00:00 18.7 8 Sudoeste 13 Sudoeste 0 1021.3 -- 86
2020-07-02 20:00:00 19.3 5 Oeste 21 Oeste 0 1020.9 -- 79
2020-07-02 19:00:00 19.5 7 Sudoeste 17 Sudoeste 0 1020.7 -- 82
2020-07-02 18:00:00 19.5 11 Sudoeste 21 Oeste 0 1020.5 -- 79
2020-07-02 17:00:00 18.8 6 Norte 17 Nordeste 0 1020.3 -- 87
2020-07-02 16:00:00 18.6 10 Sur 15 Sudoeste 0.4 1020.3 -- 90
2020-07-02 15:00:00 18.3 9 Sur 22 Noroeste 0.1 1020.2 -- 87
2020-07-02 14:00:00 18.8 7 Norte 21 Norte 0.1 1019.9 -- 88
2020-07-02 13:00:00 19.1 10 Noroeste 18 Oeste 0 1019.4 -- 87
2020-07-02 12:00:00 18.8 10 Noroeste 17 Norte 0 1019 -- 92
2020-07-02 11:00:00 18.3 9 Noroeste 15 Noroeste 0 1018.7 -- 93
2020-07-02 10:00:00 18.3 3 Sudoeste 11 Noroeste 0 1018.4 -- 93
2020-07-02 09:00:00 18.1 4 Oeste 11 Oeste 0.4 1018 -- 94
2020-07-02 08:00:00 18.2 9 Oeste 13 Oeste 0 1017.5 -- 95
2020-07-02 07:00:00 18 5 Sudoeste 9 Sudoeste 0 1017.1 -- 96
2020-07-02 06:00:00 18.1 10 Sur 11 Sur 0 1016.9 -- 95
2020-07-02 05:00:00 17.9 5 Noroeste 17 Noroeste 0.2 1016.9 -- 95
2020-07-02 04:00:00 18.4 4 Oeste 11 Oeste 0.2 1016.9 -- 94
2020-07-02 03:00:00 18.7 4 Sudoeste 11 Sur 1 1017.2 -- 93
2020-07-02 02:00:00 19.9 7 Oeste 21 Noroeste 0.2 1017.4 -- 86
2020-07-02 01:00:00 20.9 14 Norte 24 Norte 0 1016.9 -- 83
2020-07-02 00:00:00 21.4 14 Norte 22 Norte 0 1016.8 -- 85
2020-07-01 23:00:00 21.7 14 Norte 22 Norte 0 1016.6 -- 84
2020-07-01 22:00:00 21.9 8 Norte 13 Norte 0 1015.8 -- 82
2020-07-01 21:00:00 22.4 7 Norte 13 Norte 0 1015.6 -- 79
2020-07-01 20:00:00 22.8 11 Norte 18 Noroeste 0 1015.7 -- 75
2020-07-01 19:00:00 23.4 8 Noroeste 18 Norte 0 1015.6 -- 71
2020-07-01 18:00:00 23.7 9 Norte 17 Norte 0 1015.5 -- 72
2020-07-01 17:00:00 24.1 11 Noroeste 17 Oeste 0 1015.3 -- 64
2020-07-01 16:00:00 23.4 10 Oeste 18 Noroeste 0 1015.4 -- 67
2020-07-01 15:00:00 23.5 11 Noroeste 18 Oeste 0 1015 -- 72
2020-07-01 14:00:00 22.9 10 Noroeste 21 Noroeste 0 1014.7 -- 71
2020-07-01 13:00:00 23 14 Noroeste 21 Norte 0 1014.3 -- 75
2020-07-01 12:00:00 23.3 11 Noroeste 18 Noroeste 0 1013.9 -- 70
2020-07-01 11:00:00 22.6 11 Sudoeste 15 Sudoeste 0 1013.5 -- 76
2020-07-01 10:00:00 21.4 6 Sur 9 Sur 0 1013.4 -- 81
2020-07-01 09:00:00 20.4 6 Sur 8 Sur 0 1012.9 -- 91
2020-07-01 08:00:00 19.7 6 Sur 9 Sur 0 1012.5 -- 90
2020-07-01 07:00:00 19.4 6 Sur -- -- 0 1012.2 -- 91
2020-07-01 06:00:00 19.7 5 Sur 8 Sur 0 1012 -- 91
2020-07-01 05:00:00 19.9 4 Sudoeste 9 Sudoeste 0 1011.8 -- 90
2020-07-01 04:00:00 20.5 6 Oeste 13 Sudoeste 0 1011.8 -- 89
2020-07-01 03:00:00 20.5 4 Sudoeste 15 Sudoeste 0 1011.8 -- 87
2020-07-01 02:00:00 20.4 6 Oeste 11 Sudoeste 0 1012.4 -- 87
2020-07-01 01:00:00 20.6 4 Oeste 11 Sudoeste 0 1013 -- 85
2020-07-01 00:00:00 20.9 3 Oeste 9 Oeste 0 1012.8 -- 82
2020-06-30 23:00:00 21.5 6 Norte 13 Norte 0 1012 -- 80
2020-06-30 22:00:00 22.1 5 Oeste 13 Norte 0 1012.5 -- 78
2020-06-30 21:00:00 22.6 10 Norte 18 Nordeste 0 1012 -- 76
2020-06-30 20:00:00 23.1 11 Norte 18 Nordeste 0 1011.8 -- 75
2020-06-30 19:00:00 24 12 Norte 18 Nordeste 0 1012.3 -- 70
2020-06-30 18:00:00 24.1 13 Norte 21 Nordeste 0 1012.6 -- 70
2020-06-30 17:00:00 24 14 Norte 21 Nordeste 0 1013.1 -- 71
2020-06-30 16:00:00 24.2 13 Norte 22 Norte 0 1013.4 -- 67
2020-06-30 15:00:00 24.5 15 Norte 22 Norte 0 1013.9 -- 67
2020-06-30 14:00:00 24.3 15 Norte 24 Norte 0 1014.3 -- 65
2020-06-30 13:00:00 23.9 14 Norte 21 Nordeste 0 1014.8 -- 64
2020-06-30 12:00:00 23.1 11 Norte 17 Norte 0 1015.1 -- 65
2020-06-30 11:00:00 22.2 9 Norte 13 Nordeste 0 1015.6 -- 68
2020-06-30 10:00:00 21 6 Norte 9 Norte 0 1016 -- 71
2020-06-30 09:00:00 18.1 6 Sur 9 Sur 0 1016.2 -- 82
2020-06-30 08:00:00 16.3 4 Sur 8 Sur 0 1016.5 -- 91
2020-06-30 07:00:00 15.3 5 Sur 9 Sur 0 1016.8 -- 93
2020-06-30 06:00:00 15.3 5 Sur 8 Sur 0 1016.8 -- 92
2020-06-30 05:00:00 15.6 6 Sudoeste 9 Sur 0 1017.1 -- 92
2020-06-30 04:00:00 15.9 5 Sur 9 Sur 0 1017.5 -- 91
2020-06-30 03:00:00 16.3 7 Sur 9 Sur 0 1018 -- 90
2020-06-30 02:00:00 16.5 5 Sudoeste 8 Sudoeste 0 1018.6 -- 89
2020-06-30 01:00:00 17 6 Sur 9 Sur 0 1019 -- 87
2020-06-30 00:00:00 17.5 6 Sur 9 Sudoeste 0 1019 -- 85
2020-06-29 23:00:00 18.2 6 Sudoeste 9 Sur 0 1019.1 -- 83
2020-06-29 22:00:00 19.5 4 Norte 9 Norte 0 1018.8 -- 76
2020-06-29 21:00:00 20.3 6 Norte 15 Nordeste 0 1019.1 -- 68
2020-06-29 20:00:00 21.3 9 Norte 15 Nordeste 0 1019.2 -- 67
2020-06-29 19:00:00 21.5 10 Norte 15 Norte 0 1019.4 -- 66
2020-06-29 18:00:00 21.5 10 Norte 17 Norte 0 1019.8 -- 66
2020-06-29 17:00:00 22 11 Norte 17 Nordeste 0 1020 -- 65
2020-06-29 16:00:00 21.7 11 Norte 17 Nordeste 0 1020.4 -- 65
2020-06-29 15:00:00 21.5 11 Norte 18 Norte 0 1020.7 -- 65
2020-06-29 14:00:00 20.7 11 Norte 18 Norte 0 1021.2 -- 75
2020-06-29 13:00:00 20.5 11 Norte 17 Norte 0 1021.2 -- 75
2020-06-29 12:00:00 20.1 6 Norte 13 Norte 0 1021.1 -- 76
2020-06-29 11:00:00 19.1 5 Oeste 9 Oeste 0 1020.9 -- 90
2020-06-29 10:00:00 18.6 6 Sudoeste 9 Sudoeste 0.1 1021.1 -- 92
2020-06-29 09:00:00 18.9 5 Oeste 11 Oeste 0 1020.9 -- 90
2020-06-29 08:00:00 18.7 7 Sudoeste 11 Oeste 0 1020.5 -- 91
2020-06-29 07:00:00 18.8 5 Oeste 17 Oeste 0 1020.2 -- 90
2020-06-29 06:00:00 18.9 6 Sudoeste 13 Noroeste 0.1 1019.9 -- 91
2020-06-29 05:00:00 18.9 9 Noroeste 21 Noroeste 1.1 1019.7 -- 93
2020-06-29 04:00:00 20.2 12 Noroeste 26 Oeste 0.2 1019.6 -- 92
2020-06-29 03:00:00 21.1 13 Oeste 21 Oeste 0 1019.7 -- 84
2020-06-29 02:00:00 21.4 9 Oeste 15 Sudoeste 0 1019.8 -- 79
2020-06-29 01:00:00 21.7 11 Sudoeste 17 Oeste 0 1019.9 -- 77
2020-06-29 00:00:00 22 11 Oeste 22 Oeste 0 1020.2 -- 77
2020-06-28 23:00:00 22.3 8 Oeste 13 Sudoeste 0 1019.9 -- 75
2020-06-28 22:00:00 22.9 9 Sudoeste 15 Sudoeste 0 1019.6 -- 72
2020-06-28 21:00:00 23.7 8 Oeste 28 Noroeste 0 1019.2 -- 64
2020-06-28 20:00:00 25 13 Noroeste 21 Oeste 0 1018.8 -- 57
2020-06-28 19:00:00 24.1 10 Norte 15 Norte 0 1018.4 -- 71
2020-06-28 18:00:00 23.9 11 Norte 17 Nordeste 0 1018.4 -- 72
2020-06-28 17:00:00 24 13 Nordeste 17 Nordeste 0 1018.6 -- 70
2020-06-28 16:00:00 23.8 12 Norte 17 Norte 0 1018.8 -0.6 69
2020-06-28 15:00:00 23.4 12 Norte 17 Noroeste 0 1019 -- 69
2020-06-28 14:00:00 22.7 9 Norte 13 Norte 0 1019.2 -- 71
2020-06-28 13:00:00 21.5 8 Nordeste 11 Nordeste 0 1019.4 -- 74
2020-06-28 12:00:00 20.6 2 Este 9 Este 0 1019.8 -- 81
2020-06-28 11:00:00 20.2 5 Norte 9 Norte 0 1019.7 -- 83
2020-06-28 10:00:00 19.7 5 Oeste 9 Sur 0 1019.6 -- 89
2020-06-28 09:00:00 18.8 9 Sur 11 Sur 0 1019.4 -- 94
2020-06-28 08:00:00 18.9 7 Sur -- -- 0 1019.2 -- 93
2020-06-28 07:00:00 19 9 Sur 11 Sur 0 1018.7 -- 94
2020-06-28 06:00:00 18.8 5 Oeste 11 Sur 0 1018.9 -- 93
2020-06-28 05:00:00 19.5 7 Sur 9 Sur 0 1018.9 -- 93
2020-06-28 04:00:00 19.7 4 Sudoeste 8 Oeste 0.2 1018.8 -- 91
2020-06-28 03:00:00 20.1 7 Oeste 11 Oeste 0.4 1018.8 -- 90
2020-06-28 02:00:00 21.1 6 Norte 21 Norte 0 1018.8 -- 81
2020-06-28 01:00:00 21.2 13 Norte 21 Norte 0 1018.7 -- 87
2020-06-28 00:00:00 21.9 8 Noroeste 15 Norte 0 1018.3 -- 81
2020-06-27 23:00:00 21.5 4 Sudoeste 8 Oeste 0 1017.6 -- 75
2020-06-27 22:00:00 22.4 5 Oeste 9 Norte 0 1016.4 -- 73
2020-06-27 21:00:00 23.6 6 Norte 13 Norte 0 1015.9 -- 67
2020-06-27 20:00:00 24.3 11 Nordeste 17 Nordeste 0 1015.8 -- 70
2020-06-27 19:00:00 24.8 14 Nordeste 18 Nordeste 0 1015.6 -- 67
2020-06-27 18:00:00 25.3 10 Norte 15 Norte 0 1015.9 -- 68
2020-06-27 17:00:00 25 10 Nordeste 17 Norte 0 1015.9 -- 69
2020-06-27 16:00:00 26.2 9 Norte 17 Norte 0 1015.8 -- 58
2020-06-27 15:00:00 25.9 9 Norte 15 Norte 0 1015.8 -- 56
2020-06-27 14:00:00 24.5 13 Nordeste 18 Norte 0 1015.8 -- 68
2020-06-27 13:00:00 23.6 13 Norte 17 Norte 0 1015.6 -- 73
2020-06-27 12:00:00 22.9 11 Norte 17 Nordeste 0 1015.7 -- 76
2020-06-27 11:00:00 22.3 11 Nordeste 15 Norte 0 1015.3 -- 78
2020-06-27 10:00:00 21.7 7 Nordeste 13 Norte 0 1014.8 -- 82
2020-06-27 09:00:00 19.2 5 Sur 8 Sur 0 1014.5 -- 92
2020-06-27 08:00:00 17.3 4 Sur 9 Sur 0 1014.4 -- 96
2020-06-27 07:00:00 15.9 6 Sudoeste 8 Sudoeste 0 1014.7 -- 97
2020-06-27 06:00:00 16 4 Sudoeste 8 Sudoeste 0 1014.6 -- 97
2020-06-27 05:00:00 16.5 5 Sur 9 Oeste 0 1014.6 -- 97
2020-06-27 04:00:00 17.1 5 Sudoeste 11 Sur 0 1014.4 -- 97
2020-06-27 03:00:00 17.7 4 Sur 8 Sudeste 0 1014.3 -- 96
2020-06-27 02:00:00 17.9 0 Calma 13 Sudoeste 0 1014.7 -- 96
2020-06-27 01:00:00 18.5 15 Sur 18 Sur 0 1015 -- 96
2020-06-27 00:00:00 18.9 7 Sur 9 Sur 0 1015.1 -- 95
2020-06-26 23:00:00 18.9 4 Oeste 11 Sudoeste 0 1014.7 -- 94
2020-06-26 22:00:00 19.2 4 Oeste 8 Oeste 0 1014.2 -- 94
2020-06-26 21:00:00 19.5 7 Sur 11 Sudoeste 1.6 1014.3 -- 90
2020-06-26 20:00:00 19.6 4 Sur 13 Sur 0 1013.9 -- 86
2020-06-26 19:00:00 19.9 7 Sur 11 Sur 0 1013.6 -- 85
2020-06-26 18:00:00 20.1 10 Oeste 18 Noroeste 0 1014.2 -- 85
2020-06-26 17:00:00 20 9 Noroeste 15 Noroeste 0 1014.2 -- 88
2020-06-26 16:00:00 19.8 8 Noroeste 17 Noroeste 0 1014.2 -- 89
2020-06-26 15:00:00 19.5 8 Noroeste 17 Noroeste 0 1014.5 -- 91
2020-06-26 14:00:00 20 12 Oeste 18 Noroeste 0 1014.5 -- 89
2020-06-26 13:00:00 19.9 11 Oeste 15 Oeste 0 1014.5 -- 89
2020-06-26 12:00:00 19.9 9 Noroeste 13 Noroeste 0 1014.6 -- 89
2020-06-26 11:00:00 19.6 5 Norte 9 Norte 0 1014.8 -- 92
2020-06-26 10:00:00 19.4 3 Noroeste 9 Nordeste 0 1014.9 -- 91
2020-06-26 09:00:00 19.2 3 Nordeste -- -- -- 1014.8 -- 90
2020-06-26 08:00:00 -- -- -- -- -- -- -- -- --
2020-06-26 07:00:00 -- -- -- -- -- -- -- -- --
2020-06-26 06:00:00 -- -- -- -- -- -- -- -- --
2020-06-26 05:00:00 19.3 5 Sudoeste 9 Sur 0 1014.8 -- 92
2020-06-26 04:00:00 19.3 3 Oeste 11 Sudoeste 0 1015.3 -- 92
2020-06-26 03:00:00 19.2 8 Oeste 18 Noroeste 0 1016 -- 92
2020-06-26 02:00:00 19.3 8 Oeste 21 Noroeste 0 1015.7 -- 93
2020-06-26 01:00:00 19.5 9 Oeste 13 Oeste 0 1015.6 -- 94
2020-06-26 00:00:00 19.7 4 Sudoeste 9 Sudoeste 0 1015 -- 95
2020-06-25 23:00:00 19.7 5 Oeste 11 Nordeste 0 1016.2 -- 94
2020-06-25 22:00:00 19.6 4 Sur 26 Norte 0.4 1015.7 -- 93
2020-06-25 21:00:00 19.9 9 Norte 30 Sudoeste 1.6 1016.1 -- 91
2020-06-25 20:00:00 20.8 6 Oeste 22 Oeste 0.7 1014.7 -- 89
2020-06-25 19:00:00 21.4 12 Sudeste 28 Este 0.2 1013.7 -- 84
2020-06-25 18:00:00 21.2 9 Sudoeste 22 Noroeste 0.2 1015.4 -- 85
2020-06-25 17:00:00 20.4 17 Oeste 33 Oeste 0 1016.4 -- 86
2020-06-25 16:00:00 21.5 23 Noroeste 35 Noroeste 0 1016.2 -- 82
2020-06-25 15:00:00 22.9 12 Nordeste 18 Norte 0 1014.4 -- 76
2020-06-25 14:00:00 23.3 12 Nordeste 18 Nordeste 0 1015.2 -- 75
2020-06-25 13:00:00 23.7 9 Norte 24 Oeste 0 1015.6 -- 76
2020-06-25 12:00:00 22.7 20 Oeste 32 Noroeste 0 1015.8 -- 78
2020-06-25 11:00:00 22.7 14 Noroeste 26 Oeste 0 1015.4 -- 79
2020-06-25 10:00:00 21.8 10 Sudoeste 37 Noroeste 0 1015 -- 83
2020-06-25 09:00:00 22.4 17 Oeste 30 Oeste 0 1015.4 -- 84
2020-06-25 08:00:00 21.3 4 Sudoeste 17 Sudoeste 0 1013.7 -- 82
2020-06-25 07:00:00 19.7 12 Noroeste 21 Noroeste 0 1013 -- 91
2020-06-25 06:00:00 19.4 4 Oeste 8 Oeste 0 1013 -- 91
2020-06-25 05:00:00 19.6 6 Sur 8 Sudoeste 0 1013.7 -- 91
2020-06-25 04:00:00 19.7 8 Sudoeste 9 Sudoeste 0 1014.6 -- 90
2020-06-25 03:00:00 20.2 4 Oeste 5 Oeste 0 1014.9 -- 88
2020-06-25 02:00:00 20.9 2 Oeste 11 Sur 0 1015 -- 86
2020-06-25 01:00:00 21.4 9 Sur 17 Sudoeste 0 1015.3 -- 84
2020-06-25 00:00:00 20.7 6 Sudoeste 18 Sudoeste 0 1016.2 -- 86
2020-06-24 23:00:00 21 14 Sudoeste 26 Oeste 0 1016.6 -- 82
2020-06-24 22:00:00 21.9 10 Oeste 28 Oeste 0 1015.8 -- 82
2020-06-24 21:00:00 22.2 10 Oeste 28 Oeste 0 1015.1 -- 83
2020-06-24 20:00:00 23.9 13 Oeste 37 Oeste 0 1013.8 -- 79
2020-06-24 19:00:00 24 12 Nordeste 15 Nordeste 0 1012.9 -- 79
2020-06-24 18:00:00 24 13 Nordeste 17 Nordeste 0 1013 -- 78
2020-06-24 17:00:00 24.9 11 Nordeste 18 Nordeste 0 1013.2 -- 73
2020-06-24 16:00:00 26.1 13 Nordeste 17 Nordeste 0 1013.3 -- 71
2020-06-24 15:00:00 26.1 11 Nordeste 17 Norte 0 1013.5 -- 69
2020-06-24 14:00:00 28.1 9 Norte 18 Norte 0 1013.4 -- 66
2020-06-24 13:00:00 26.4 13 Nordeste 18 Nordeste 0 1013.5 -- 65
2020-06-24 12:00:00 27.2 9 Nordeste 15 Norte 0 1013.3 -- 66
2020-06-24 11:00:00 27.6 6 Oeste 15 Noroeste 0 1013.1 -- 64
2020-06-24 10:00:00 27 9 Nordeste 13 Nordeste 0 1013.1 -- 64
2020-06-24 09:00:00 23.3 7 Sur 9 Sudoeste 0 1012.6 -- 78
2020-06-24 08:00:00 21.1 6 Sur 9 Sur 0 1012.4 -- 86
2020-06-24 07:00:00 19.8 6 Sur 11 Sur 0 1012.5 -- 91
2020-06-24 06:00:00 19.9 6 Sur 9 Sur 0 1012.3 -- 91
2020-06-24 05:00:00 20.3 5 Sudoeste 9 Sur 0 1012 -- 91
2020-06-24 04:00:00 20.4 6 Sudoeste 9 Sur 0 1012.4 -- 91
2020-06-24 03:00:00 20.5 4 Sudoeste 13 Noroeste 0 1012.7 -- 91
2020-06-24 02:00:00 20.9 6 Oeste 9 Sudoeste 0 1012.8 -- 88
2020-06-24 01:00:00 21.8 6 Sudoeste 9 Sudoeste 0 1013.1 -- 84
2020-06-24 00:00:00 22.6 0 Calma 5 Noroeste 0 1013.4 -- 81
2020-06-23 23:00:00 23.5 5 Sur 9 Sur 0 1013.4 -- 78
2020-06-23 22:00:00 24.6 3 Nordeste 8 Este 0 1012.8 -- 71
2020-06-23 21:00:00 25.5 3 Norte 9 Nordeste 0 1012.8 -- 67
2020-06-23 20:00:00 25.8 6 Norte 15 Norte 0 1012.8 -- 64
2020-06-23 19:00:00 26.3 9 Norte 15 Norte 0 1013.1 -- 62
2020-06-23 18:00:00 25.8 9 Norte 17 Norte 0 1013.7 -- 66
2020-06-23 17:00:00 25.4 14 Norte 22 Nordeste 0 1014 -- 71
2020-06-23 16:00:00 28.1 14 Norte 22 Norte 0 1014.3 -- 55
2020-06-23 15:00:00 28.2 13 Norte 18 Norte 0 1014.7 -- 53
2020-06-23 14:00:00 27.3 11 Norte 17 Norte 0 1015.3 -- 55
2020-06-23 13:00:00 26.5 10 Norte 17 Norte 0 1015.8 -- 58
2020-06-23 12:00:00 24.4 9 Norte 17 Norte 0 1016.2 -- 67
2020-06-23 11:00:00 23 11 Norte 15 Norte 0 1016.8 -- 73
2020-06-23 10:00:00 21.4 8 Norte 9 Norte 0 1017.4 -- 75
2020-06-23 09:00:00 19.1 3 Sur 5 Sur 0 1018 -- 81
2020-06-23 08:00:00 17 3 Sur 11 Sur 0 1018.3 -- 89
2020-06-23 07:00:00 15.7 8 Sur 13 Sur 0 1018.2 -- 93
2020-06-23 06:00:00 16.2 6 Sur 9 Sudeste 0 1018.4 -- 92
2020-06-23 05:00:00 16.5 6 Sur 9 Sur 0 1018.8 -- 91
2020-06-23 04:00:00 16.6 8 Sur 9 Sur 0 1019.5 -- 91
2020-06-23 03:00:00 17 8 Sur 9 Sur 0 1020 -- 89
2020-06-23 02:00:00 17.4 7 Sur -- -- 0 1020.6 -- 87
2020-06-23 01:00:00 18.1 7 Sur 9 Sur 0 1020.9 -- 82
2020-06-23 00:00:00 18.7 8 Sur 11 Sur 0 1021.3 -- 86
2020-06-22 23:00:00 20.1 5 Sudeste 11 Este 0 1021.5 -- 82
2020-06-22 22:00:00 20.3 11 Nordeste 17 Nordeste 0 1021.1 -- 83
2020-06-22 21:00:00 20.7 12 Nordeste 18 Nordeste 0 1021.1 -- 78
2020-06-22 20:00:00 21.4 15 Nordeste 18 Nordeste 0 1021.2 -- 75
2020-06-22 19:00:00 21.8 13 Nordeste 21 Nordeste 0 1021.6 -- 73
2020-06-22 18:00:00 22.4 16 Nordeste 22 Nordeste 0 1022.1 -- 71
2020-06-22 17:00:00 23 17 Nordeste 22 Nordeste 0 1022.8 -- 70
2020-06-22 16:00:00 22.6 15 Nordeste 24 Nordeste 0 1023.4 -- 71
2020-06-22 15:00:00 22.3 15 Norte 22 Nordeste 0 1024.2 -- 72
2020-06-22 14:00:00 22.6 15 Norte 22 Norte 0 1024.8 -- 72
2020-06-22 13:00:00 22.9 12 Norte 18 Norte 0 1025.1 -- 70
2020-06-22 12:00:00 22.1 11 Nordeste 17 Nordeste 0 1025.3 -- 74
2020-06-22 11:00:00 21.1 8 Norte 11 Norte 0 1025.6 -- 78
2020-06-22 10:00:00 20.2 6 Nordeste 11 Nordeste 0 1026 -- 80
2020-06-22 09:00:00 19.4 4 Sur 5 Sur 0 1026.1 -- 78
2020-06-22 08:00:00 18.4 4 Sur -- -- 0 1026.1 -- 82
2020-06-22 07:00:00 17.9 7 Sudoeste -- -- 0 1025.9 -- 83
2020-06-22 06:00:00 17.5 6 Sur 9 Sur 0 1025.9 -- 86
2020-06-22 05:00:00 18.2 6 Sur 9 Sudeste 0 1026 -- 83
2020-06-22 04:00:00 19.1 5 Sur 11 Sur 0 1026.4 -- 75
2020-06-22 03:00:00 19.3 9 Sudoeste 13 Sudoeste 0 1027 -- 75
2020-06-22 02:00:00 19.1 6 Sur 9 Sur 0 1027.5 -- 77
2020-06-22 01:00:00 19 7 Sur 9 Sur 0 1027.6 -- 79
2020-06-22 00:00:00 19 8 Sur 9 Sur 0 1027.5 -- 80
2020-06-21 23:00:00 19.6 7 Oeste 11 Sudoeste 0 1027.2 -- 78
2020-06-21 22:00:00 20.4 9 Oeste 17 Oeste 0 1026.8 -- 72
2020-06-21 21:00:00 21.3 11 Noroeste 21 Noroeste 0 1026.4 -- 71
2020-06-21 20:00:00 22.5 9 Noroeste 18 Oeste 0 1026.1 -- 69
2020-06-21 19:00:00 23.5 13 Norte 24 Noroeste 0 1025.7 -- 65
2020-06-21 18:00:00 24.3 12 Norte 22 Norte 0 1025.6 -- 52
2020-06-21 17:00:00 24 15 Norte 26 Norte 0 1025.5 -- 55
2020-06-21 16:00:00 24.8 13 Noroeste 22 Norte 0 1025.1 -- 52
2020-06-21 15:00:00 24.4 13 Norte 18 Norte 0 1024.7 -- 52
2020-06-21 14:00:00 24 11 Norte 17 Norte 0 1024.9 -- 53
2020-06-21 13:00:00 23.1 12 Nordeste 17 Norte 0 1024.8 -- 56
2020-06-21 12:00:00 22 13 Nordeste 17 Nordeste 0 1024.5 -- 62
2020-06-21 11:00:00 22.5 10 Nordeste 13 Nordeste 0 1024.3 -- 62
2020-06-21 10:00:00 20.1 3 Sudeste 5 Sur 0 1024.2 -- 68
2020-06-21 09:00:00 18.2 3 Sudeste 8 Sur 0 1024.1 -- 74
2020-06-21 08:00:00 16 5 Sur 9 Sur 0 1023.8 -- 87
2020-06-21 07:00:00 14.8 7 Sur 11 Sudeste 0 1023.6 -- 91
2020-06-21 06:00:00 14.9 4 Sur 11 Sur 0 1023.2 -- 91
2020-06-21 05:00:00 15.5 7 Sur 9 Sur 0 1023.1 -- 90
2020-06-21 04:00:00 15.7 7 Sur 9 Sur 0 1023 -- 90
2020-06-21 03:00:00 16.1 7 Sur 9 Sur 0 1023.3 -- 90
2020-06-21 02:00:00 16.4 8 Sur 9 Sur 0 1023.8 -- 87
2020-06-21 01:00:00 17 5 Sur 8 Sur 0 1023.8 -- 87
2020-06-21 00:00:00 17.8 6 Sur 9 Sur 0 1023.8 -- 82
2020-06-20 23:00:00 18.6 4 Sur 8 Sur 0 1023.5 -- 80
2020-06-20 22:00:00 19.8 8 Norte 11 Norte 0 1022.8 -- 73
2020-06-20 21:00:00 20.8 7 Norte 13 Nordeste 0 1022.2 -- 68
2020-06-20 20:00:00 21.1 12 Nordeste 18 Nordeste 0 1021.9 -- 65
2020-06-20 19:00:00 21.7 10 Norte 17 Nordeste 0 1021.7 -- 63
2020-06-20 18:00:00 21.6 13 Norte 21 Norte 0 1022.1 -- 65
2020-06-20 17:00:00 21.8 13 Norte 18 Nordeste 0 1022.2 -- 66
2020-06-20 16:00:00 21.7 13 Norte 21 Norte 0 1022.3 -- 68
2020-06-20 15:00:00 21.7 14 Norte 21 Norte 0 1022.4 -- 67
2020-06-20 14:00:00 21.4 14 Norte 21 Norte 0 1022.6 -- 67
2020-06-20 13:00:00 21 13 Norte 18 Nordeste 0 1022.8 -- 67
2020-06-20 12:00:00 20.7 10 Norte 17 Norte 0 1022.7 -- 74
2020-06-20 11:00:00 20.1 9 Nordeste 13 Nordeste 0 1022.7 -- 72
2020-06-20 10:00:00 19.2 6 Norte 9 Norte 0 1022.7 -- 75
2020-06-20 09:00:00 18.1 4 Sudoeste 9 Sudoeste 0 1022.4 -- 81
2020-06-20 08:00:00 16.8 5 Sur 9 Sur 0 1022.1 -- 86
2020-06-20 07:00:00 16.6 5 Sur -- -- 0 1021.9 -- 86
2020-06-20 06:00:00 17 5 Sudoeste 8 Sudoeste 0 1021.8 -- 85
2020-06-20 05:00:00 17.4 5 Sudoeste -- -- 0 1022 -- 83
2020-06-20 04:00:00 17.7 4 Sudeste 8 Sudeste 0 1021.9 -- 80
2020-06-20 03:00:00 18 5 Sudoeste 9 Sudoeste 0 1022.1 -- 80
2020-06-20 02:00:00 18.4 6 Sudoeste 8 Sudoeste 0 1022.2 -- 78
2020-06-20 01:00:00 18.7 6 Sudoeste 8 Sudoeste 0 1022.6 -- 74
2020-06-20 00:00:00 18.6 4 Oeste 8 Oeste 0 1022.6 -- 76
2020-06-19 23:00:00 18.8 5 Noroeste 11 Noroeste 0 1022.2 -- 74
2020-06-19 22:00:00 19 6 Norte 13 Norte 0 1021.4 -- 73
2020-06-19 21:00:00 19.5 8 Norte 13 Norte 0 1020.9 -- 69
2020-06-19 20:00:00 20.1 9 Norte 15 Norte 0 1020.5 -- 63
2020-06-19 19:00:00 21 10 Norte 17 Norte 0 1020.2 -- 60
2020-06-19 18:00:00 21.8 12 Norte 18 Norte 0 1019.9 -- 57
2020-06-19 17:00:00 20.9 9 Noroeste 21 Noroeste 0 1020.1 -- 60
2020-06-19 16:00:00 20.9 11 Norte 18 Oeste 0 1019.9 -- 63
2020-06-19 15:00:00 21.2 13 Norte 22 Norte 0 1019.7 -- 65
2020-06-19 14:00:00 20.7 14 Norte 24 Norte 0 1019.6 -- 68
2020-06-19 13:00:00 20.3 12 Norte 18 Norte 0 1019.7 -- 71
2020-06-19 12:00:00 19.9 12 Norte 17 Norte 0 1019.4 -- 69
2020-06-19 11:00:00 19.1 11 Norte 17 Norte 0 1019.1 -- 74
2020-06-19 10:00:00 18 9 Norte 13 Norte 0 1019.2 -- 75
2020-06-19 09:00:00 15.6 7 Sudeste 9 Sudeste 0 1019.2 -- 83
2020-06-19 08:00:00 14.4 4 Sur 8 Sur 0 1019.1 -- 88
2020-06-19 07:00:00 13.7 5 Sur 9 Sudeste 0 1018.9 -- 90
2020-06-19 06:00:00 13.8 6 Sudeste 9 Sudeste 0 1018.6 -- 89
2020-06-19 05:00:00 13.9 5 Sur 9 Sur 0 1018.5 -- 90
2020-06-19 04:00:00 14.3 9 Sudeste 11 Sudeste 0 1018.7 -- 88
2020-06-19 03:00:00 14.4 5 Sur 9 Sur 0 1018.9 -- 89
2020-06-19 02:00:00 14.7 6 Sur 9 Sur 0 1019.1 -- 87
2020-06-19 01:00:00 14.9 7 Sur 9 Sur 0 1019.2 -- 88
2020-06-19 00:00:00 15.4 7 Sur 9 Sur 0 1019 -- 84
2020-06-18 23:00:00 16.3 7 Sur -- -- 0 1018.8 -- 82
2020-06-18 22:00:00 17.6 4 Norte 9 Norte 0 1018.1 -- 74
2020-06-18 21:00:00 18.6 7 Norte 13 Norte 0 1017.4 -- 68
2020-06-18 20:00:00 18.9 8 Norte 15 Nordeste 0 1017.1 -- 67
2020-06-18 19:00:00 19.9 10 Norte 18 Norte 0 1017 -- 63
2020-06-18 18:00:00 20.6 12 Norte 22 Norte 0 1017 -- 60
2020-06-18 17:00:00 21.3 12 Norte 24 Norte 0 1017 -- 57
2020-06-18 16:00:00 20.9 14 Noroeste 26 Noroeste 0 1017 -- 62
2020-06-18 15:00:00 21 12 Noroeste 22 Noroeste 0 1016.9 -- 61
2020-06-18 14:00:00 20.9 12 Noroeste 26 Noroeste 0 1016.9 -- 61
2020-06-18 13:00:00 19.8 15 Noroeste 26 Noroeste 0 1016.8 -- 65
2020-06-18 12:00:00 19.7 10 Oeste 22 Noroeste 0 1016.5 -- 62
2020-06-18 11:00:00 18.5 7 Sudoeste 13 Sur 0 1016.4 -- 72
2020-06-18 10:00:00 16.7 8 Sudoeste 17 Sudoeste 0 1016.5 -- 85
2020-06-18 09:00:00 15.4 6 Sur 11 Sur 0 1016.2 -- 92
2020-06-18 08:00:00 14.4 4 Sur 11 Sudoeste 0 1015.8 -- 95
2020-06-18 07:00:00 14.1 7 Sudoeste 18 Sudoeste 0.3 1015.9 -- 95
2020-06-18 06:00:00 14.3 14 Sudoeste 22 Sudoeste 3.3 1016.2 -- 94
2020-06-18 05:00:00 14.7 9 Sur 11 Sur 0.3 1015.8 -- 91
2020-06-18 04:00:00 14.5 8 Sur 9 Sur 0 1016.2 -- 89
2020-06-18 03:00:00 14.3 8 Sur 9 Sur 0 1016.4 -- 89
2020-06-18 02:00:00 15 3 Sudoeste 9 Sudeste 0 1016.7 -- 87
2020-06-18 01:00:00 15.8 8 Sur 11 Sur 0 1017.3 -- 83
2020-06-18 00:00:00 16.3 3 Sur 8 Sudoeste 0 1017.5 -- 81
2020-06-17 23:00:00 16.7 5 Sudoeste 9 Oeste 0 1017.7 -- 78
2020-06-17 22:00:00 17.2 5 Sudoeste 9 Oeste 0 1017.4 -- 77
2020-06-17 21:00:00 17.9 9 Oeste 17 Oeste 0 1017.2 -- 72
2020-06-17 20:00:00 18.9 9 Oeste 24 Oeste 0 1017.3 -- 69
2020-06-17 19:00:00 19.4 12 Oeste 22 Oeste 0 1017.5 -- 69
2020-06-17 18:00:00 19.4 15 Noroeste 26 Oeste 0 1017.5 -- 66
2020-06-17 17:00:00 19.1 10 Oeste 28 Noroeste 0 1017.8 -- 67
2020-06-17 16:00:00 20.1 15 Oeste 33 Oeste 0 1017.8 -- 65
2020-06-17 15:00:00 19.4 12 Oeste 30 Oeste 0 1017.7 -- 67
2020-06-17 14:00:00 18.5 19 Oeste 33 Oeste 0 1018 -- 65
2020-06-17 13:00:00 18.5 18 Oeste 32 Sudoeste 0 1018 -- 65
2020-06-17 12:00:00 18.9 13 Oeste 37 Sudoeste 0 1017.8 -- 65
2020-06-17 11:00:00 18.5 19 Oeste 32 Oeste 0 1017.5 -- 65
2020-06-17 10:00:00 17.8 16 Sudoeste 28 Oeste 0 1017.5 -- 68
2020-06-17 09:00:00 16.4 15 Sudoeste 24 Sudoeste 0 1017.5 -- 77
2020-06-17 08:00:00 15.3 12 Sudoeste 17 Sudoeste 0 1017.4 -- 84
2020-06-17 07:00:00 14.5 9 Sudoeste 15 Sudoeste 0 1017.1 -- 89
2020-06-17 06:00:00 14.5 12 Sudoeste 17 Sudoeste 0 1016.9 -- 91
2020-06-17 05:00:00 14.8 12 Sudoeste 17 Sudoeste 0 1017.1 -- 90
2020-06-17 04:00:00 15.1 13 Sudoeste 18 Sudoeste 0.1 1017.5 -- 90
2020-06-17 03:00:00 15.6 9 Sudoeste 17 Sur 0 1018.1 -- 83
2020-06-17 02:00:00 15.7 12 Sudoeste 21 Sudoeste 0 1018.7 -- 84
2020-06-17 01:00:00 15.8 10 Sudoeste 18 Sudoeste 0 1019.1 -- 85
2020-06-17 00:00:00 16 12 Sudoeste 17 Oeste 0 1019.4 -- 85
2020-06-16 23:00:00 16.4 8 Sudoeste 17 Sudoeste 0 1019.3 -- 83
2020-06-16 22:00:00 16.8 9 Sudoeste 18 Sudoeste 0 1019 -- 82
2020-06-16 21:00:00 17 9 Oeste 22 Oeste 0 1018.8 -- 85
2020-06-16 20:00:00 16.8 14 Oeste 33 Noroeste 1 1018.9 -- 85
2020-06-16 19:00:00 18 21 Oeste 32 Oeste 0 1018.8 -- 71
2020-06-16 18:00:00 20.5 17 Oeste 32 Oeste 0 1018.3 -- 60
2020-06-16 17:00:00 20.2 17 Oeste 26 Oeste 0 1018.3 -- 64
2020-06-16 16:00:00 18.7 15 Oeste 26 Oeste 0 1018.5 -- 78
2020-06-16 15:00:00 18.6 8 Oeste 21 Norte 0.4 1018.5 -- 81
2020-06-16 14:00:00 20.9 15 Norte 22 Norte 0 1018.1 -- 60
2020-06-16 13:00:00 21.4 14 Norte 18 Norte 0 1018 -- 63
2020-06-16 12:00:00 20.2 8 Nordeste 13 Nordeste 0 1018.2 -- 65
2020-06-16 11:00:00 18.7 4 Sudeste 9 Oeste 0 1018.8 -- 72
2020-06-16 10:00:00 17.8 7 Oeste 9 Sudoeste 0 1019.5 -- 78
2020-06-16 09:00:00 16.9 5 Oeste 9 Oeste 0 1019.7 -- 83
2020-06-16 08:00:00 16 5 Sur 11 Sur 0 1019.5 -- 84
2020-06-16 07:00:00 15.9 6 Sudeste 9 Oeste 0 1019.6 -- 85
2020-06-16 06:00:00 16.1 8 Sudeste 11 Sudeste 0 1019.5 -- 83
2020-06-16 05:00:00 16 3 Sur 8 Sudeste 0 1020 -- 83
2020-06-16 04:00:00 16.2 8 Sudeste 9 Sur 0 1020.4 -- 82
2020-06-16 03:00:00 16.4 4 Sudoeste 9 Sur 0 1020.9 -- 80
2020-06-16 02:00:00 16.6 6 Sur 9 Sudeste 0 1021.2 -- 78
2020-06-16 01:00:00 17 6 Sur 9 Sur 0 1021.8 -- 77
2020-06-16 00:00:00 17.3 7 Sur 9 Sur 0 1022.1 -- 76
2020-06-15 23:00:00 18 3 Oeste 9 Noroeste 0 1022.2 -- 72
2020-06-15 22:00:00 18.5 6 Oeste 11 Oeste 0 1021.6 -- 68
2020-06-15 21:00:00 19.8 6 Noroeste 11 Noroeste 0 1021.6 -- 58
2020-06-15 20:00:00 21 6 Norte 13 Norte 0 1021.4 -- 54
2020-06-15 19:00:00 21.8 9 Norte 17 Norte 0 1021.4 -- 54
2020-06-15 18:00:00 21.8 12 Norte 17 Norte 0 1021.4 -- 53
2020-06-15 17:00:00 21.1 12 Nordeste 17 Nordeste 0 1021.5 -- 56
2020-06-15 16:00:00 21.4 13 Nordeste 17 Nordeste 0 1021.6 -- 53
2020-06-15 15:00:00 20.9 9 Nordeste 15 Nordeste 0 1021.8 -- 54
2020-06-15 14:00:00 20.6 11 Nordeste 15 Nordeste 0 1021.9 -- 61
2020-06-15 13:00:00 20.1 10 Nordeste 13 Nordeste 0 1022.1 -- 61
2020-06-15 12:00:00 20.6 11 Nordeste 15 Norte 0 1021.9 -- 60
2020-06-15 11:00:00 19.9 6 Este 8 Este 0 1021.7 -- 57
2020-06-15 10:00:00 17.7 5 Sur 9 Sur 0 1021.9 -- 71
2020-06-15 09:00:00 16.2 6 Sur 11 Sur 0 1021.9 -- 78
2020-06-15 08:00:00 15.8 7 Sur 9 Sur 0 1021.5 -- 80
2020-06-15 07:00:00 15.7 8 Sur 11 Sur 0 1021.2 -- 79
2020-06-15 06:00:00 15.4 8 Sur 9 Sur 0 1021 -- 81
2020-06-15 05:00:00 15.4 6 Sur 13 Sur 0 1021 -- 80
2020-06-15 04:00:00 15.1 9 Sur 13 Sudeste 0 1021.4 -- 83
2020-06-15 03:00:00 15.1 8 Sur 11 Sur 0 1021.6 -- 83
2020-06-15 02:00:00 15.6 8 Sur 11 Sur 0 1021.7 -- 81
2020-06-15 01:00:00 16.3 5 Sur 9 Sur 0 1022 -- 80
2020-06-15 00:00:00 16.9 6 Sur 9 Sur 0 1022.1 -- 75